createdAt,value
2017-06-06T00:00:23.830Z,958.59
2017-06-06T00:01:32.525Z,958.6
2017-06-06T00:02:41.527Z,958.58
2017-06-06T00:03:50.276Z,958.54
2017-06-06T00:05:00.243Z,958.57
2017-06-06T00:06:09.250Z,958.58
2017-06-06T00:07:18.317Z,958.64
2017-06-06T00:08:27.566Z,958.52
2017-06-06T00:09:36.274Z,958.5
2017-06-06T00:10:45.041Z,958.54
2017-06-06T00:11:54.412Z,958.49
2017-06-06T00:13:03.172Z,958.49
2017-06-06T00:14:11.931Z,958.45
2017-06-06T00:15:20.987Z,958.45
2017-06-06T00:16:30.052Z,958.45
2017-06-06T00:17:39.410Z,958.38
2017-06-06T00:18:48.113Z,958.38
2017-06-06T00:19:57.162Z,958.35
2017-06-06T00:21:06.192Z,958.35
2017-06-06T00:22:14.948Z,958.36
2017-06-06T00:23:23.710Z,958.31
2017-06-06T00:24:32.437Z,958.33
2017-06-06T00:25:42.125Z,958.31
2017-06-06T00:26:50.884Z,958.27
2017-06-06T00:27:59.935Z,958.3
2017-06-06T00:29:08.936Z,958.26
2017-06-06T00:30:17.934Z,958.27
2017-06-06T00:31:26.651Z,958.28
2017-06-06T00:32:35.392Z,958.23
2017-06-06T00:33:44.389Z,958.25
2017-06-06T00:34:53.399Z,958.32
2017-06-06T00:36:02.799Z,958.23
2017-06-06T00:37:11.869Z,958.21
2017-06-06T00:38:21.167Z,958.25
2017-06-06T00:39:29.928Z,958.14
2017-06-06T00:40:38.953Z,958.14
2017-06-06T00:41:47.966Z,958.13
2017-06-06T00:42:56.723Z,958.08
2017-06-06T00:44:05.682Z,958.11
2017-06-06T00:45:14.739Z,958.01
2017-06-06T00:46:23.790Z,958.03
2017-06-06T00:47:32.483Z,958.01
2017-06-06T00:48:41.498Z,958.01
2017-06-06T00:49:50.559Z,958.02
2017-06-06T00:50:59.304Z,957.96
2017-06-06T00:52:08.019Z,957.93
2017-06-06T00:53:17.072Z,957.96
2017-06-06T00:54:25.776Z,957.96
2017-06-06T00:55:34.512Z,957.93
2017-06-06T00:56:43.273Z,957.84
2017-06-06T00:57:52.641Z,957.88
2017-06-06T00:59:01.694Z,957.85
2017-06-06T01:00:10.449Z,957.81
2017-06-06T01:01:19.216Z,957.79
2017-06-06T01:02:28.113Z,957.77
2017-06-06T01:03:36.819Z,957.74
2017-06-06T01:04:45.582Z,957.69
2017-06-06T01:05:54.346Z,957.67
2017-06-06T01:07:03.716Z,957.6
2017-06-06T01:08:12.780Z,957.58
2017-06-06T01:09:21.836Z,957.62
2017-06-06T01:10:31.546Z,957.51
2017-06-06T01:11:40.645Z,957.56
2017-06-06T01:12:49.711Z,957.52
2017-06-06T01:13:59.086Z,957.45
2017-06-06T01:15:07.793Z,957.5
2017-06-06T01:16:16.526Z,957.49
2017-06-06T01:17:25.523Z,957.47
2017-06-06T01:18:34.839Z,957.43
2017-06-06T01:19:43.900Z,957.41
2017-06-06T01:20:52.664Z,957.4
2017-06-06T01:22:01.726Z,957.43
2017-06-06T01:23:11.089Z,957.46
2017-06-06T01:24:20.138Z,957.37
2017-06-06T01:25:29.150Z,957.35
2017-06-06T01:26:38.205Z,957.33
2017-06-06T01:27:46.910Z,957.25
2017-06-06T01:28:55.670Z,957.23
2017-06-06T01:30:04.725Z,957.19
2017-06-06T01:31:13.789Z,957.35
2017-06-06T01:32:22.842Z,957.17
2017-06-06T01:33:32.458Z,957.15
2017-06-06T01:34:41.218Z,957.14
2017-06-06T01:35:50.583Z,957.1
2017-06-06T01:37:00.256Z,957.1
2017-06-06T01:38:09.619Z,957.05
2017-06-06T01:39:18.631Z,957.05
2017-06-06T01:40:27.399Z,957.03
2017-06-06T01:41:36.150Z,957.04
2017-06-06T01:42:45.232Z,957
2017-06-06T01:43:54.242Z,956.98
2017-06-06T01:45:03.008Z,957.01
2017-06-06T01:46:12.087Z,956.97
2017-06-06T01:47:20.849Z,956.9
2017-06-06T01:48:29.611Z,956.95
2017-06-06T01:49:38.620Z,956.87
2017-06-06T01:50:47.670Z,956.85
2017-06-06T01:51:56.717Z,956.87
2017-06-06T01:53:05.473Z,956.86
2017-06-06T01:54:14.236Z,956.79
2017-06-06T01:55:23.304Z,956.79
2017-06-06T01:56:32.067Z,956.8
2017-06-06T01:57:41.129Z,956.72
2017-06-06T01:58:50.198Z,956.71
2017-06-06T01:59:58.948Z,956.76
2017-06-06T02:01:07.702Z,956.64
2017-06-06T02:02:16.716Z,956.57
2017-06-06T02:03:25.771Z,956.57
2017-06-06T02:04:34.503Z,956.57
2017-06-06T02:05:43.260Z,956.55
2017-06-06T02:06:52.024Z,956.58
2017-06-06T02:08:01.085Z,956.57
2017-06-06T02:09:10.152Z,956.54
2017-06-06T02:10:18.917Z,956.51
2017-06-06T02:11:27.679Z,956.49
2017-06-06T02:12:36.426Z,956.47
2017-06-06T02:13:45.200Z,956.44
2017-06-06T02:14:54.212Z,956.4
2017-06-06T02:16:03.284Z,956.38
2017-06-06T02:17:12.651Z,956.33
2017-06-06T02:18:21.414Z,956.33
2017-06-06T02:19:30.168Z,956.27
2017-06-06T02:20:38.918Z,956.28
2017-06-06T02:21:47.628Z,956.25
2017-06-06T02:22:56.393Z,956.15
2017-06-06T02:24:05.452Z,956.16
2017-06-06T02:25:14.819Z,956.14
2017-06-06T02:26:23.879Z,956.11
2017-06-06T02:27:32.639Z,956.12
2017-06-06T02:28:42.016Z,956.12
2017-06-06T02:29:50.786Z,956.09
2017-06-06T02:30:59.524Z,956.17
2017-06-06T02:32:08.775Z,956.04
2017-06-06T02:33:18.460Z,956.02
2017-06-06T02:34:27.520Z,956.09
2017-06-06T02:35:36.575Z,956.07
2017-06-06T02:36:51.659Z,956.15
2017-06-06T02:38:00.658Z,955.98
2017-06-06T02:39:09.970Z,955.97
2017-06-06T02:40:19.027Z,956
2017-06-06T02:41:27.789Z,955.98
2017-06-06T02:42:36.534Z,955.93
2017-06-06T02:43:45.898Z,955.97
2017-06-06T02:44:54.645Z,955.91
2017-06-06T02:46:03.699Z,955.9
2017-06-06T02:47:12.705Z,955.89
2017-06-06T02:48:21.760Z,955.79
2017-06-06T02:49:30.526Z,955.85
2017-06-06T02:50:39.827Z,955.85
2017-06-06T02:51:48.584Z,955.83
2017-06-06T02:52:57.345Z,955.83
2017-06-06T02:54:06.403Z,955.77
2017-06-06T02:55:15.161Z,955.76
2017-06-06T02:56:24.212Z,955.77
2017-06-06T02:57:32.921Z,955.7
2017-06-06T02:58:41.995Z,955.75
2017-06-06T02:59:51.055Z,955.7
2017-06-06T03:00:59.809Z,955.66
2017-06-06T03:02:08.898Z,955.57
2017-06-06T03:03:17.659Z,955.59
2017-06-06T03:04:26.418Z,955.56
2017-06-06T03:05:35.216Z,955.56
2017-06-06T03:06:44.281Z,955.52
2017-06-06T03:07:53.942Z,955.51
2017-06-06T03:09:02.974Z,955.54
2017-06-06T03:10:12.343Z,955.51
2017-06-06T03:11:21.397Z,955.49
2017-06-06T03:12:30.468Z,955.45
2017-06-06T03:13:39.530Z,955.41
2017-06-06T03:14:48.291Z,955.42
2017-06-06T03:15:57.048Z,955.46
2017-06-06T03:17:05.793Z,955.43
2017-06-06T03:18:14.795Z,955.39
2017-06-06T03:19:23.552Z,955.34
2017-06-06T03:20:32.917Z,955.25
2017-06-06T03:21:42.579Z,955.26
2017-06-06T03:22:51.277Z,955.25
2017-06-06T03:24:00.332Z,955.31
2017-06-06T03:25:09.088Z,955.19
2017-06-06T03:26:17.843Z,955.25
2017-06-06T03:27:27.794Z,955.13
2017-06-06T03:28:36.480Z,955.27
2017-06-06T03:29:45.181Z,955.08
2017-06-06T03:30:53.943Z,955.03
2017-06-06T03:32:02.702Z,955.14
2017-06-06T03:33:11.753Z,954.99
2017-06-06T03:34:20.755Z,955.01
2017-06-06T03:35:29.516Z,955
2017-06-06T03:36:38.552Z,954.97
2017-06-06T03:37:47.860Z,954.99
2017-06-06T03:38:56.619Z,954.99
2017-06-06T03:40:05.708Z,954.89
2017-06-06T03:41:14.766Z,954.84
2017-06-06T03:42:23.859Z,954.92
2017-06-06T03:43:32.915Z,954.9
2017-06-06T03:44:41.974Z,954.88
2017-06-06T03:45:51.326Z,954.77
2017-06-06T03:47:00.637Z,954.99
2017-06-06T03:48:09.726Z,954.8
2017-06-06T03:49:18.491Z,954.71
2017-06-06T03:50:27.606Z,954.67
2017-06-06T03:51:36.354Z,954.74
2017-06-06T03:52:45.062Z,954.77
2017-06-06T03:53:54.101Z,954.66
2017-06-06T03:55:02.803Z,954.6
2017-06-06T03:56:11.563Z,954.64
2017-06-06T03:57:20.624Z,954.67
2017-06-06T03:58:29.390Z,954.58
2017-06-06T03:59:38.144Z,954.63
2017-06-06T04:00:47.217Z,954.63
2017-06-06T04:01:56.585Z,954.6
2017-06-06T04:03:05.908Z,954.62
2017-06-06T04:04:14.650Z,954.58
2017-06-06T04:05:23.683Z,954.55
2017-06-06T04:06:33.339Z,954.57
2017-06-06T04:07:42.342Z,954.55
2017-06-06T04:08:51.401Z,954.55
2017-06-06T04:10:00.445Z,954.51
2017-06-06T04:11:09.454Z,954.51
2017-06-06T04:12:18.519Z,954.55
2017-06-06T04:13:27.222Z,954.49
2017-06-06T04:14:35.974Z,954.54
2017-06-06T04:15:45.036Z,954.47
2017-06-06T04:16:53.799Z,954.44
2017-06-06T04:18:02.864Z,954.43
2017-06-06T04:19:11.620Z,954.42
2017-06-06T04:20:20.683Z,954.45
2017-06-06T04:21:29.747Z,954.44
2017-06-06T04:22:38.507Z,954.44
2017-06-06T04:23:47.567Z,954.44
2017-06-06T04:24:56.631Z,954.37
2017-06-06T04:26:05.403Z,954.36
2017-06-06T04:27:14.151Z,954.41
2017-06-06T04:28:22.842Z,954.35
2017-06-06T04:29:31.877Z,954.32
2017-06-06T04:30:40.945Z,954.36
2017-06-06T04:31:50.006Z,954.35
2017-06-06T04:32:58.754Z,954.34
2017-06-06T04:34:08.056Z,954.31
2017-06-06T04:35:16.763Z,954.29
2017-06-06T04:36:26.129Z,954.27
2017-06-06T04:37:34.889Z,954.25
2017-06-06T04:38:43.647Z,954.25
2017-06-06T04:39:52.700Z,954.17
2017-06-06T04:41:01.707Z,954.17
2017-06-06T04:42:10.766Z,954.2
2017-06-06T04:43:19.820Z,954.2
2017-06-06T04:44:29.182Z,954.12
2017-06-06T04:45:38.241Z,954.12
2017-06-06T04:46:47.303Z,954.14
2017-06-06T04:47:56.290Z,954.14
2017-06-06T04:49:04.998Z,954.06
2017-06-06T04:50:13.753Z,954.07
2017-06-06T04:51:22.780Z,954.12
2017-06-06T04:52:31.532Z,954.08
2017-06-06T04:53:40.614Z,954.16
2017-06-06T04:54:49.653Z,954.05
2017-06-06T04:55:58.354Z,954.11
2017-06-06T04:57:07.736Z,954.04
2017-06-06T04:58:16.491Z,954.06
2017-06-06T04:59:25.244Z,954.05
2017-06-06T05:00:34.023Z,954.06
2017-06-06T05:01:43.063Z,954.11
2017-06-06T05:02:52.257Z,954
2017-06-06T05:04:01.314Z,954.03
2017-06-06T05:05:10.387Z,954.08
2017-06-06T05:06:19.137Z,954.12
2017-06-06T05:07:28.453Z,954.15
2017-06-06T05:08:40.869Z,954.04
2017-06-06T05:09:49.626Z,954
2017-06-06T05:10:58.688Z,954.09
2017-06-06T05:12:07.434Z,953.98
2017-06-06T05:13:16.499Z,954.04
2017-06-06T05:14:25.562Z,953.95
2017-06-06T05:15:34.325Z,953.93
2017-06-06T05:16:43.089Z,953.97
2017-06-06T05:17:52.145Z,953.98
2017-06-06T05:19:01.194Z,953.98
2017-06-06T05:20:09.889Z,954.11
2017-06-06T05:21:19.110Z,953.94
2017-06-06T05:22:27.877Z,953.92
2017-06-06T05:23:36.936Z,953.88
2017-06-06T05:24:45.699Z,953.92
2017-06-06T05:25:54.463Z,953.83
2017-06-06T05:27:04.138Z,953.8
2017-06-06T05:28:12.904Z,953.71
2017-06-06T05:29:21.675Z,953.79
2017-06-06T05:30:30.425Z,953.67
2017-06-06T05:31:40.089Z,953.7
2017-06-06T05:32:48.867Z,953.6
2017-06-06T05:33:57.621Z,953.64
2017-06-06T05:35:07.295Z,953.56
2017-06-06T05:36:16.056Z,953.54
2017-06-06T05:37:25.124Z,953.58
2017-06-06T05:38:33.877Z,953.52
2017-06-06T05:39:42.888Z,953.57
2017-06-06T05:40:52.240Z,953.58
2017-06-06T05:42:00.943Z,953.64
2017-06-06T05:43:09.688Z,953.68
2017-06-06T05:44:18.684Z,953.61
2017-06-06T05:45:27.738Z,953.53
2017-06-06T05:46:36.491Z,953.64
2017-06-06T05:47:45.247Z,953.52
2017-06-06T05:48:54.005Z,953.53
2017-06-06T05:50:03.062Z,953.53
2017-06-06T05:51:11.820Z,953.48
2017-06-06T05:52:20.582Z,953.52
2017-06-06T05:53:29.911Z,953.52
2017-06-06T05:54:39.229Z,953.49
2017-06-06T05:55:48.602Z,953.54
2017-06-06T05:56:57.360Z,953.46
2017-06-06T05:58:06.106Z,953.47
2017-06-06T05:59:15.114Z,953.46
2017-06-06T06:00:23.860Z,953.46
2017-06-06T06:01:32.866Z,953.47
2017-06-06T06:02:41.621Z,953.45
2017-06-06T06:03:50.384Z,953.52
2017-06-06T06:04:59.138Z,953.46
2017-06-06T06:06:07.979Z,953.44
2017-06-06T06:07:17.726Z,953.4
2017-06-06T06:08:26.424Z,953.59
2017-06-06T06:09:35.175Z,953.48
2017-06-06T06:10:44.476Z,953.4
2017-06-06T06:11:53.516Z,953.34
2017-06-06T06:13:02.534Z,953.45
2017-06-06T06:14:11.291Z,953.37
2017-06-06T06:15:20.360Z,953.36
2017-06-06T06:16:29.993Z,953.35
2017-06-06T06:17:39.189Z,953.26
2017-06-06T06:18:48.467Z,953.25
2017-06-06T06:19:57.222Z,953.22
2017-06-06T06:21:06.583Z,953.24
2017-06-06T06:22:16.264Z,953.32
2017-06-06T06:23:25.643Z,953.2
2017-06-06T06:24:35.009Z,953.15
2017-06-06T06:25:43.766Z,953.11
2017-06-06T06:26:52.831Z,953.06
2017-06-06T06:28:01.881Z,953.1
2017-06-06T06:29:10.932Z,953.09
2017-06-06T06:30:19.638Z,953.04
2017-06-06T06:31:28.398Z,953.03
2017-06-06T06:32:37.159Z,953.2
2017-06-06T06:33:45.920Z,953.11
2017-06-06T06:34:54.672Z,953.15
2017-06-06T06:36:04.043Z,952.99
2017-06-06T06:37:13.083Z,952.9
2017-06-06T06:38:22.785Z,952.91
2017-06-06T06:39:32.147Z,952.89
2017-06-06T06:40:41.200Z,953.01
2017-06-06T06:41:50.288Z,952.84
2017-06-06T06:42:59.304Z,952.86
2017-06-06T06:44:08.655Z,952.79
2017-06-06T06:45:17.965Z,952.74
2017-06-06T06:46:27.084Z,952.83
2017-06-06T06:47:35.841Z,952.63
2017-06-06T06:48:44.602Z,952.63
2017-06-06T06:49:53.963Z,952.62
2017-06-06T06:51:03.034Z,952.57
2017-06-06T06:52:11.800Z,952.57
2017-06-06T06:53:20.855Z,952.52
2017-06-06T06:54:29.633Z,952.58
2017-06-06T06:55:38.696Z,952.63
2017-06-06T06:56:47.458Z,952.57
2017-06-06T06:57:56.215Z,952.59
2017-06-06T06:59:05.274Z,952.7
2017-06-06T07:00:14.961Z,952.71
2017-06-06T07:01:24.042Z,952.75
2017-06-06T07:02:33.403Z,952.81
2017-06-06T07:03:42.470Z,952.76
2017-06-06T07:04:51.527Z,952.67
2017-06-06T07:06:00.589Z,952.62
2017-06-06T07:07:09.637Z,952.73
2017-06-06T07:08:18.732Z,952.75
2017-06-06T07:09:27.793Z,952.7
2017-06-06T07:10:36.851Z,952.74
2017-06-06T07:11:45.585Z,952.84
2017-06-06T07:12:54.285Z,952.76
2017-06-06T07:19:07.826Z,952.66
2017-06-06T07:20:17.484Z,952.72
2017-06-06T07:21:26.504Z,952.84
2017-06-06T07:22:35.275Z,952.88
2017-06-06T07:23:45.243Z,952.75
2017-06-06T07:24:54.312Z,952.75
2017-06-06T07:26:03.689Z,952.76
2017-06-06T07:27:12.416Z,952.82
2017-06-06T07:28:21.485Z,952.79
2017-06-06T07:29:30.529Z,952.74
2017-06-06T07:30:39.515Z,952.98
2017-06-06T07:31:48.263Z,952.78
2017-06-06T07:32:57.631Z,952.92
2017-06-06T07:34:06.652Z,952.69
2017-06-06T07:35:15.716Z,952.89
2017-06-06T07:36:24.483Z,952.8
2017-06-06T07:37:33.252Z,952.86
2017-06-06T07:38:42.260Z,952.78
2017-06-06T07:39:50.961Z,952.83
2017-06-06T07:40:59.701Z,952.78
2017-06-06T07:42:09.004Z,952.81
2017-06-06T07:43:18.010Z,952.9
2017-06-06T07:44:27.057Z,952.73
2017-06-06T07:45:35.770Z,952.85
2017-06-06T07:46:44.802Z,952.83
2017-06-06T07:47:53.858Z,952.85
2017-06-06T07:49:02.618Z,952.82
2017-06-06T07:50:11.361Z,952.82
2017-06-06T07:51:20.376Z,952.72
2017-06-06T07:52:29.145Z,952.73
2017-06-06T07:53:38.513Z,952.77
2017-06-06T07:54:47.270Z,952.76
2017-06-06T07:55:56.029Z,952.63
2017-06-06T07:57:04.774Z,952.76
2017-06-06T07:58:13.570Z,952.85
2017-06-06T07:59:22.276Z,952.67
2017-06-06T08:00:31.344Z,952.61
2017-06-06T08:01:40.783Z,952.66
2017-06-06T08:02:49.535Z,952.76
2017-06-06T08:03:58.238Z,952.67
2017-06-06T08:05:06.995Z,952.7
2017-06-06T08:06:15.713Z,952.56
2017-06-06T08:07:24.749Z,952.59
2017-06-06T08:08:33.815Z,952.58
2017-06-06T08:09:43.173Z,952.49
2017-06-06T08:10:51.928Z,952.49
2017-06-06T08:12:00.981Z,952.45
2017-06-06T08:13:09.984Z,952.46
2017-06-06T08:14:18.746Z,952.51
2017-06-06T08:15:27.798Z,952.6
2017-06-06T08:16:36.509Z,952.49
2017-06-06T08:17:45.574Z,952.52
2017-06-06T08:18:54.635Z,952.55
2017-06-06T08:20:03.391Z,952.49
2017-06-06T08:21:12.396Z,952.41
2017-06-06T08:22:21.138Z,952.43
2017-06-06T08:23:30.127Z,952.33
2017-06-06T08:24:39.451Z,952.39
2017-06-06T08:25:48.506Z,952.38
2017-06-06T08:26:57.565Z,952.36
2017-06-06T08:28:06.914Z,952.25
2017-06-06T08:29:15.985Z,952.29
2017-06-06T08:30:24.729Z,952.35
2017-06-06T08:31:33.421Z,952.39
2017-06-06T08:32:42.771Z,952.31
2017-06-06T08:33:51.826Z,952.3
2017-06-06T08:35:00.536Z,952.31
2017-06-06T08:36:09.272Z,952.27
2017-06-06T08:37:18.030Z,952.27
2017-06-06T08:38:26.775Z,952.32
2017-06-06T08:39:35.835Z,952.25
2017-06-06T08:40:44.620Z,952.26
2017-06-06T08:41:53.382Z,952.34
2017-06-06T08:43:02.439Z,952.26
2017-06-06T08:44:11.806Z,952.33
2017-06-06T08:45:20.808Z,952.35
2017-06-06T08:46:29.566Z,952.25
2017-06-06T08:47:38.329Z,952.45
2017-06-06T08:48:47.669Z,952.42
2017-06-06T08:49:56.434Z,952.32
2017-06-06T08:51:05.192Z,952.41
2017-06-06T08:52:14.242Z,952.25
2017-06-06T08:53:23.555Z,952.31
2017-06-06T08:54:32.303Z,952.38
2017-06-06T08:55:41.347Z,952.21
2017-06-06T08:56:50.402Z,952.29
2017-06-06T08:57:59.762Z,952.26
2017-06-06T08:59:08.523Z,952.35
2017-06-06T09:00:17.307Z,952.21
2017-06-06T09:01:26.373Z,952.32
2017-06-06T09:02:35.742Z,952.46
2017-06-06T09:03:44.811Z,952.51
2017-06-06T09:04:53.867Z,952.42
2017-06-06T09:06:03.168Z,952.3
2017-06-06T09:07:11.877Z,952.35
2017-06-06T09:08:21.223Z,952.37
2017-06-06T09:09:30.225Z,952.41
2017-06-06T09:10:38.983Z,952.31
2017-06-06T09:11:47.738Z,952.55
2017-06-06T09:12:57.101Z,952.34
2017-06-06T09:14:06.163Z,952.53
2017-06-06T09:15:14.924Z,952.23
2017-06-06T09:16:23.683Z,952.37
2017-06-06T09:17:32.427Z,952.48
2017-06-06T09:18:41.136Z,952.36
2017-06-06T09:19:49.892Z,952.17
2017-06-06T09:20:58.645Z,952.22
2017-06-06T09:22:07.349Z,952.26
2017-06-06T09:23:16.115Z,952.19
2017-06-06T09:24:26.595Z,952.21
2017-06-06T09:25:35.356Z,952.1
2017-06-06T09:26:44.732Z,952.18
2017-06-06T09:27:53.492Z,952.2
2017-06-06T09:29:02.543Z,952.04
2017-06-06T09:30:11.533Z,952.15
2017-06-06T09:31:20.539Z,952.17
2017-06-06T09:32:29.893Z,952.17
2017-06-06T09:33:38.910Z,952.09
2017-06-06T09:34:47.669Z,952.09
2017-06-06T09:35:56.415Z,952.14
2017-06-06T09:37:05.416Z,952.05
2017-06-06T09:38:15.092Z,952.15
2017-06-06T09:39:23.834Z,952.15
2017-06-06T09:40:32.833Z,952.13
2017-06-06T09:41:41.882Z,952.13
2017-06-06T09:42:50.663Z,952.25
2017-06-06T09:43:59.663Z,952.2
2017-06-06T09:45:09.022Z,952.21
2017-06-06T09:46:18.032Z,952.28
2017-06-06T09:47:26.746Z,952.31
2017-06-06T09:48:35.489Z,952.27
2017-06-06T09:49:44.498Z,952.26
2017-06-06T09:50:53.260Z,952.22
2017-06-06T09:52:02.012Z,952.29
2017-06-06T09:53:10.775Z,952.35
2017-06-06T09:54:19.840Z,952.34
2017-06-06T09:55:29.205Z,952.38
2017-06-06T09:56:38.262Z,952.38
2017-06-06T09:57:47.323Z,952.45
2017-06-06T09:58:56.076Z,952.53
2017-06-06T10:00:04.824Z,952.47
2017-06-06T10:01:13.832Z,952.52
2017-06-06T10:02:22.893Z,952.51
2017-06-06T10:03:32.303Z,952.44
2017-06-06T10:04:41.307Z,952.54
2017-06-06T10:05:50.074Z,952.53
2017-06-06T10:06:59.120Z,952.6
2017-06-06T10:08:07.824Z,952.54
2017-06-06T10:09:16.876Z,952.59
2017-06-06T10:10:25.630Z,952.58
2017-06-06T10:11:34.963Z,952.65
2017-06-06T10:12:43.727Z,952.56
2017-06-06T10:13:52.488Z,952.54
2017-06-06T10:15:01.541Z,952.59
2017-06-06T10:16:10.251Z,952.56
2017-06-06T10:17:19.308Z,952.47
2017-06-06T10:18:28.058Z,952.56
2017-06-06T10:19:37.274Z,952.56
2017-06-06T10:20:46.339Z,952.49
2017-06-06T10:21:55.406Z,952.54
2017-06-06T10:23:04.471Z,952.6
2017-06-06T10:24:13.543Z,952.59
2017-06-06T10:25:22.598Z,952.64
2017-06-06T10:26:32.045Z,952.59
2017-06-06T10:27:40.742Z,952.56
2017-06-06T10:28:49.798Z,952.62
2017-06-06T10:29:59.178Z,952.64
2017-06-06T10:31:07.935Z,952.58
2017-06-06T10:32:17.321Z,952.56
2017-06-06T10:33:26.071Z,952.66
2017-06-06T10:34:35.118Z,952.72
2017-06-06T10:35:44.472Z,952.52
2017-06-06T10:36:53.182Z,952.55
2017-06-06T10:38:01.944Z,952.56
2017-06-06T10:39:10.699Z,952.46
2017-06-06T10:40:20.092Z,952.45
2017-06-06T10:41:28.851Z,952.52
2017-06-06T10:42:37.609Z,952.5
2017-06-06T10:43:46.379Z,952.56
2017-06-06T10:44:55.743Z,952.56
2017-06-06T10:46:04.501Z,952.55
2017-06-06T10:47:13.261Z,952.61
2017-06-06T10:48:22.007Z,952.58
2017-06-06T10:49:30.714Z,952.55
2017-06-06T10:50:40.076Z,952.49
2017-06-06T10:51:48.844Z,952.42
2017-06-06T10:52:57.597Z,952.5
2017-06-06T10:54:06.323Z,952.47
2017-06-06T10:55:15.092Z,952.58
2017-06-06T10:56:23.862Z,952.5
2017-06-06T10:57:32.937Z,952.51
2017-06-06T10:58:42.001Z,952.49
2017-06-06T10:59:51.067Z,952.52
2017-06-06T11:01:00.114Z,952.51
2017-06-06T11:02:08.804Z,952.45
2017-06-06T11:03:17.808Z,952.28
2017-06-06T11:04:26.562Z,952.32
2017-06-06T11:05:35.312Z,952.41
2017-06-06T11:06:44.322Z,952.49
2017-06-06T11:07:53.335Z,952.65
2017-06-06T11:09:03.018Z,952.79
2017-06-06T11:10:11.781Z,953.15
2017-06-06T11:11:20.537Z,953.18
2017-06-06T11:12:29.601Z,953.18
2017-06-06T11:13:38.653Z,953.2
2017-06-06T11:14:47.752Z,953.24
2017-06-06T11:15:56.505Z,953.34
2017-06-06T11:17:05.269Z,953.15
2017-06-06T11:18:14.629Z,953.26
2017-06-06T11:19:23.330Z,953.27
2017-06-06T11:20:32.136Z,953.25
2017-06-06T11:21:41.201Z,953.25
2017-06-06T11:22:50.265Z,953.23
2017-06-06T11:23:59.027Z,953.17
2017-06-06T11:25:07.781Z,953.17
2017-06-06T11:26:17.095Z,953.17
2017-06-06T11:27:26.151Z,953.28
2017-06-06T11:28:34.869Z,953.27
2017-06-06T11:29:43.625Z,953.33
2017-06-06T11:30:52.692Z,953.29
2017-06-06T11:32:01.716Z,953.33
2017-06-06T11:33:10.785Z,953.29
2017-06-06T11:34:19.534Z,953.26
2017-06-06T11:35:28.653Z,953.18
2017-06-06T11:36:38.324Z,953.24
2017-06-06T11:37:47.633Z,953.28
2017-06-06T11:38:56.675Z,953.3
2017-06-06T11:40:05.388Z,953.37
2017-06-06T11:41:14.438Z,953.26
2017-06-06T11:42:23.479Z,953.24
2017-06-06T11:43:32.548Z,953.33
2017-06-06T11:44:41.604Z,953.26
2017-06-06T11:45:50.316Z,953.39
2017-06-06T11:46:59.383Z,953.38
2017-06-06T11:48:08.450Z,953.42
2017-06-06T11:49:17.528Z,953.43
2017-06-06T11:50:26.582Z,953.28
2017-06-06T11:51:35.661Z,953.41
2017-06-06T11:52:44.717Z,953.35
2017-06-06T11:53:54.098Z,953.29
2017-06-06T11:55:02.860Z,953.37
2017-06-06T11:56:12.238Z,953.42
2017-06-06T11:57:21.299Z,953.29
2017-06-06T11:58:30.359Z,953.41
2017-06-06T11:59:39.064Z,953.29
2017-06-06T12:00:47.826Z,953.33
2017-06-06T12:01:56.581Z,953.36
2017-06-06T12:03:05.360Z,953.42
2017-06-06T12:04:14.128Z,953.43
2017-06-06T12:05:23.196Z,953.48
2017-06-06T12:06:31.952Z,953.49
2017-06-06T12:07:41.008Z,953.52
2017-06-06T12:08:50.377Z,953.56
2017-06-06T12:09:59.435Z,953.64
2017-06-06T12:11:08.505Z,953.62
2017-06-06T12:12:17.263Z,953.61
2017-06-06T12:13:26.032Z,953.64
2017-06-06T12:14:35.085Z,953.63
2017-06-06T12:15:44.100Z,953.65
2017-06-06T12:16:52.867Z,953.6
2017-06-06T12:18:01.848Z,953.67
2017-06-06T12:19:11.205Z,953.59
2017-06-06T12:20:20.571Z,953.75
2017-06-06T12:21:29.318Z,953.74
2017-06-06T12:22:38.629Z,953.78
2017-06-06T12:23:47.683Z,953.71
2017-06-06T12:24:56.692Z,953.77
2017-06-06T12:26:05.756Z,953.72
2017-06-06T12:27:14.525Z,953.77
2017-06-06T12:28:23.267Z,953.73
2017-06-06T12:29:32.303Z,953.79
2017-06-06T12:30:41.672Z,953.81
2017-06-06T12:31:50.745Z,953.81
2017-06-06T12:33:00.119Z,953.91
2017-06-06T12:34:08.895Z,953.89
2017-06-06T12:35:17.957Z,953.85
2017-06-06T12:36:26.718Z,953.82
2017-06-06T12:37:36.093Z,953.78
2017-06-06T12:38:45.445Z,953.85
2017-06-06T12:39:54.155Z,953.89
2017-06-06T12:41:02.922Z,953.83
2017-06-06T12:42:11.986Z,953.89
2017-06-06T12:43:20.741Z,953.83
2017-06-06T12:44:29.498Z,953.91
2017-06-06T12:45:38.548Z,953.84
2017-06-06T12:46:47.246Z,953.83
2017-06-06T12:47:56.011Z,953.94
2017-06-06T12:49:04.775Z,953.96
2017-06-06T12:50:13.840Z,953.96
2017-06-06T12:51:22.602Z,954
2017-06-06T12:52:31.667Z,954.01
2017-06-06T12:53:40.441Z,954.04
2017-06-06T12:54:49.211Z,954.06
2017-06-06T12:55:58.590Z,954.14
2017-06-06T12:57:07.662Z,954.12
2017-06-06T12:58:16.739Z,954.17
2017-06-06T12:59:26.129Z,954.13
2017-06-06T13:00:35.188Z,954.22
2017-06-06T13:01:43.953Z,954.18
2017-06-06T13:02:53.020Z,954.17
2017-06-06T13:04:01.794Z,954.17
2017-06-06T13:05:10.553Z,954.17
2017-06-06T13:06:19.621Z,954.25
2017-06-06T13:07:28.383Z,954.2
2017-06-06T13:08:37.443Z,954.13
2017-06-06T13:09:46.197Z,954.15
2017-06-06T13:10:55.053Z,954.17
2017-06-06T13:12:04.103Z,954.14
2017-06-06T13:13:12.801Z,954.25
2017-06-06T13:14:21.797Z,954.25
2017-06-06T13:15:30.542Z,954.19
2017-06-06T13:16:39.893Z,954.17
2017-06-06T13:17:49.493Z,954.16
2017-06-06T13:18:58.798Z,954.16
2017-06-06T13:20:07.558Z,954.13
2017-06-06T13:21:16.938Z,954.19
2017-06-06T13:22:26.299Z,954.15
2017-06-06T13:23:35.381Z,954.19
2017-06-06T13:24:44.148Z,954.23
2017-06-06T13:25:53.158Z,954.14
2017-06-06T13:27:01.927Z,954.15
2017-06-06T13:28:10.682Z,954.17
2017-06-06T13:29:20.048Z,954.1
2017-06-06T13:30:28.813Z,954.11
2017-06-06T13:31:37.884Z,954.19
2017-06-06T13:32:46.649Z,954.17
2017-06-06T13:33:55.713Z,954.17
2017-06-06T13:35:04.783Z,954.17
2017-06-06T13:36:13.850Z,954.17
2017-06-06T13:37:22.608Z,954.18
2017-06-06T13:38:31.374Z,954.17
2017-06-06T13:39:40.438Z,954.13
2017-06-06T13:40:49.504Z,954.19
2017-06-06T13:41:58.261Z,954.14
2017-06-06T13:43:07.031Z,954.24
2017-06-06T13:44:15.789Z,954.22
2017-06-06T13:45:24.843Z,954.2
2017-06-06T13:46:33.547Z,954.21
2017-06-06T13:47:42.613Z,954.19
2017-06-06T13:48:51.370Z,954.29
2017-06-06T13:50:00.131Z,954.11
2017-06-06T13:51:08.895Z,954.22
2017-06-06T13:52:18.242Z,954.17
2017-06-06T13:53:27.010Z,954.3
2017-06-06T13:54:36.378Z,954.22
2017-06-06T13:55:45.140Z,954.25
2017-06-06T13:56:54.199Z,954.27
2017-06-06T13:58:03.231Z,954.43
2017-06-06T13:59:12.287Z,954.51
2017-06-06T14:00:20.973Z,954.59
2017-06-06T14:01:30.187Z,954.62
2017-06-06T14:02:39.253Z,954.55
2017-06-06T14:03:48.251Z,954.6
2017-06-06T14:04:56.944Z,954.55
2017-06-06T14:06:05.948Z,954.62
2017-06-06T14:07:15.015Z,954.53
2017-06-06T14:08:24.572Z,954.82
2017-06-06T14:09:33.311Z,954.61
2017-06-06T14:10:42.023Z,954.69
2017-06-06T14:11:50.794Z,954.73
2017-06-06T14:12:59.858Z,954.63
2017-06-06T14:14:08.916Z,954.46
2017-06-06T14:15:17.963Z,954.57
2017-06-06T14:16:27.025Z,954.52
2017-06-06T14:17:36.402Z,954.48
2017-06-06T14:18:45.471Z,954.65
2017-06-06T14:19:54.222Z,954.48
2017-06-06T14:21:03.225Z,954.38
2017-06-06T14:22:12.285Z,954.41
2017-06-06T14:23:21.348Z,954.53
2017-06-06T14:24:30.106Z,954.34
2017-06-06T14:25:38.863Z,954.3
2017-06-06T14:26:47.922Z,954.45
2017-06-06T14:27:56.692Z,954.4